createdAt,value
2022-12-28T00:01:47.407Z,2.20
2022-12-28T00:04:15.443Z,2.20
2022-12-28T00:06:42.546Z,2.20
2022-12-28T00:09:10.869Z,2.10
2022-12-28T00:11:37.925Z,2.10
2022-12-28T00:14:05.041Z,2.10
2022-12-28T00:16:33.187Z,2.10
2022-12-28T00:19:00.732Z,2.00
2022-12-28T00:21:27.807Z,2.10
2022-12-28T00:23:57.558Z,2.00
2022-12-28T00:26:25.823Z,2.00
2022-12-28T00:28:56.798Z,2.00
2022-12-28T00:31:27.077Z,2.00
2022-12-28T00:33:56.042Z,2.00
2022-12-28T00:36:23.061Z,2.00
2022-12-28T00:38:50.181Z,2.00
2022-12-28T00:41:17.274Z,2.00
2022-12-28T00:43:44.511Z,2.00
2022-12-28T00:46:11.686Z,2.00
2022-12-28T00:48:38.689Z,2.00
2022-12-28T00:51:16.715Z,2.10
2022-12-28T00:53:43.687Z,2.00
2022-12-28T00:56:14.859Z,2.10
2022-12-28T00:58:41.875Z,2.10
2022-12-28T01:01:13.130Z,2.10
2022-12-28T01:03:40.211Z,2.10
2022-12-28T01:06:07.655Z,2.10
2022-12-28T01:08:37.021Z,2.10
2022-12-28T01:11:11.725Z,2.10
2022-12-28T01:13:38.704Z,2.10
2022-12-28T01:16:11.806Z,2.10
2022-12-28T01:18:38.866Z,2.10
2022-12-28T01:21:09.672Z,2.10
2022-12-28T01:23:36.658Z,2.10
2022-12-28T01:26:05.659Z,2.10
2022-12-28T01:28:32.637Z,2.10
2022-12-28T01:31:03.573Z,2.10
2022-12-28T01:33:30.591Z,2.10
2022-12-28T01:35:57.554Z,2.10
2022-12-28T01:38:24.543Z,2.10
2022-12-28T01:40:51.516Z,2.10
2022-12-28T01:43:29.838Z,2.10
2022-12-28T01:45:57.990Z,2.10
2022-12-28T01:48:25.192Z,2.10
2022-12-28T01:50:52.164Z,2.10
2022-12-28T01:53:19.123Z,2.00
2022-12-28T01:55:47.813Z,2.00
2022-12-28T01:58:17.304Z,2.00
2022-12-28T02:00:44.626Z,2.00
2022-12-28T02:03:12.856Z,2.00
2022-12-28T02:05:40.975Z,2.00
2022-12-28T02:08:10.966Z,2.00
2022-12-28T02:10:41.279Z,2.00
2022-12-28T02:13:11.976Z,2.00
2022-12-28T02:15:38.966Z,2.00
2022-12-28T02:18:05.994Z,2.00
2022-12-28T02:20:53.265Z,2.00
2022-12-28T02:23:39.118Z,2.10
2022-12-28T02:26:24.564Z,2.10
2022-12-28T02:28:57.738Z,2.10
2022-12-28T02:31:27.926Z,2.10
2022-12-28T02:33:57.907Z,2.10
2022-12-28T02:36:27.502Z,2.20
2022-12-28T02:38:55.909Z,2.20
2022-12-28T02:41:25.111Z,2.20
2022-12-28T02:43:53.055Z,2.30
2022-12-28T02:46:38.836Z,2.20
2022-12-28T02:49:43.058Z,2.20
2022-12-28T02:52:28.897Z,2.20
2022-12-28T02:55:17.877Z,2.20
2022-12-28T02:58:02.431Z,2.20
2022-12-28T03:00:31.734Z,2.20
2022-12-28T03:03:17.686Z,2.20
2022-12-28T03:06:19.815Z,2.20
2022-12-28T03:08:53.415Z,2.30
2022-12-28T03:11:22.538Z,2.30
2022-12-28T03:13:56.220Z,2.30
2022-12-28T03:16:25.487Z,2.30
2022-12-28T03:19:20.324Z,2.30
2022-12-28T03:22:06.524Z,2.30
2022-12-28T03:24:52.210Z,2.30
2022-12-28T03:27:41.231Z,2.30
2022-12-28T03:30:31.332Z,2.30
2022-12-28T03:32:58.908Z,2.30
2022-12-28T03:35:27.811Z,2.30
2022-12-28T03:37:57.055Z,2.30
2022-12-28T03:40:31.394Z,2.30
2022-12-28T03:43:19.133Z,2.30
2022-12-28T03:45:49.550Z,2.40
2022-12-28T03:48:17.635Z,2.40
2022-12-28T03:50:47.288Z,2.40
2022-12-28T03:53:19.832Z,2.40
2022-12-28T03:55:48.305Z,2.40
2022-12-28T03:58:17.691Z,2.40
2022-12-28T04:00:44.749Z,2.50
2022-12-28T04:03:11.881Z,2.40
2022-12-28T04:05:38.887Z,2.50
2022-12-28T04:08:05.948Z,2.50
2022-12-28T04:10:34.067Z,2.50
2022-12-28T04:13:01.075Z,2.50
2022-12-28T04:15:39.376Z,2.50
2022-12-28T04:18:06.457Z,2.50
2022-12-28T04:20:33.449Z,2.50
2022-12-28T04:23:01.516Z,2.60
2022-12-28T04:25:28.609Z,2.60
2022-12-28T04:27:56.352Z,2.60
2022-12-28T04:30:49.391Z,2.60
2022-12-28T04:33:16.655Z,2.60
2022-12-28T04:35:46.648Z,2.50
2022-12-28T04:38:13.962Z,2.50
2022-12-28T04:40:40.913Z,2.50
2022-12-28T04:43:07.931Z,2.60
2022-12-28T04:45:34.951Z,2.50
2022-12-28T04:48:01.971Z,2.60
2022-12-28T04:50:29.009Z,2.60
2022-12-28T04:52:55.962Z,2.60
2022-12-28T04:55:31.983Z,2.60
2022-12-28T04:58:00.575Z,2.60
2022-12-28T05:00:27.640Z,2.70
2022-12-28T05:02:54.761Z,2.70
2022-12-28T05:05:21.746Z,2.70
2022-12-28T05:07:48.710Z,2.70
2022-12-28T05:10:17.573Z,2.60
2022-12-28T05:12:44.537Z,2.70
2022-12-28T05:15:11.524Z,2.70
2022-12-28T05:17:38.513Z,2.70
2022-12-28T05:20:05.707Z,2.70
2022-12-28T05:22:37.698Z,2.70
2022-12-28T05:25:07.719Z,2.70
2022-12-28T05:27:34.688Z,2.70
2022-12-28T05:30:01.710Z,2.70
2022-12-28T05:32:28.671Z,2.80
2022-12-28T05:34:55.645Z,2.80
2022-12-28T05:37:22.614Z,2.90
2022-12-28T05:39:49.593Z,2.90
2022-12-28T05:42:16.553Z,2.90
2022-12-28T05:44:43.509Z,2.90
2022-12-28T05:47:10.557Z,2.90
2022-12-28T05:49:37.649Z,2.90
2022-12-28T05:52:04.769Z,2.90
2022-12-28T05:54:31.720Z,3.00
2022-12-28T05:56:59.491Z,3.00
2022-12-28T05:59:26.450Z,3.00
2022-12-28T06:01:53.565Z,3.00
2022-12-28T06:04:21.169Z,3.00
2022-12-28T06:06:48.235Z,3.00
2022-12-28T06:09:15.189Z,3.00
2022-12-28T06:11:42.187Z,3.00
2022-12-28T06:14:09.187Z,3.00
2022-12-28T06:16:37.396Z,3.00
2022-12-28T06:19:05.268Z,3.00
2022-12-28T06:21:32.509Z,3.00
2022-12-28T06:23:59.736Z,3.10
2022-12-28T06:26:27.352Z,3.00
2022-12-28T06:28:54.361Z,3.10
2022-12-28T06:31:22.336Z,3.10
2022-12-28T06:33:49.588Z,3.10
2022-12-28T06:36:20.244Z,3.10
2022-12-28T06:38:48.127Z,3.10
2022-12-28T06:41:15.625Z,3.10
2022-12-28T06:43:42.890Z,3.10
2022-12-28T06:46:10.118Z,3.10
2022-12-28T06:48:37.165Z,3.10
2022-12-28T06:51:04.995Z,3.10
2022-12-28T06:53:32.893Z,3.10
2022-12-28T06:56:00.687Z,3.10
2022-12-28T06:58:27.984Z,3.10
2022-12-28T07:00:55.324Z,3.10
2022-12-28T07:03:22.781Z,3.20
2022-12-28T07:05:49.785Z,3.20
2022-12-28T07:08:16.868Z,3.20
2022-12-28T07:10:44.073Z,3.20
2022-12-28T07:13:11.031Z,3.30
2022-12-28T07:15:38.029Z,3.30
2022-12-28T07:18:04.992Z,3.30
2022-12-28T07:20:35.499Z,3.30
2022-12-28T07:23:07.134Z,3.30
2022-12-28T07:25:35.193Z,3.30
2022-12-28T07:28:02.146Z,3.40
2022-12-28T07:30:29.228Z,3.40
2022-12-28T07:32:56.281Z,3.40
2022-12-28T07:35:23.326Z,3.40
2022-12-28T07:37:50.472Z,3.40
2022-12-28T07:40:17.481Z,3.40
2022-12-28T07:42:44.455Z,3.40
2022-12-28T07:45:12.695Z,3.40
2022-12-28T07:47:40.388Z,3.50
2022-12-28T07:50:07.541Z,3.50
2022-12-28T07:52:35.552Z,3.50
2022-12-28T07:55:02.820Z,3.50
2022-12-28T07:57:29.787Z,3.50
2022-12-28T07:59:56.768Z,3.60
2022-12-28T08:02:23.810Z,3.60
2022-12-28T08:04:52.385Z,3.60
2022-12-28T08:07:19.630Z,3.70
2022-12-28T08:09:46.588Z,3.80
2022-12-28T08:12:13.559Z,3.80
2022-12-28T08:14:40.533Z,3.80
2022-12-28T08:17:07.512Z,3.90
2022-12-28T08:19:34.481Z,3.90
2022-12-28T08:22:01.774Z,3.90
2022-12-28T08:24:28.786Z,4.00
2022-12-28T08:26:55.835Z,4.00
2022-12-28T08:29:22.883Z,4.00
2022-12-28T08:31:50.150Z,4.00
2022-12-28T08:34:22.573Z,4.10
2022-12-28T08:36:50.014Z,4.10
2022-12-28T08:39:17.042Z,4.20
2022-12-28T08:41:44.011Z,4.30
2022-12-28T08:44:10.983Z,4.30
2022-12-28T08:46:38.202Z,4.30
2022-12-28T08:49:05.885Z,4.30
2022-12-28T08:51:33.987Z,4.30
2022-12-28T08:54:00.982Z,4.30
2022-12-28T08:56:32.161Z,4.40
2022-12-28T08:58:59.529Z,4.40
2022-12-28T09:01:27.467Z,4.50
2022-12-28T09:03:55.087Z,4.60
2022-12-28T09:06:23.465Z,4.60
2022-12-28T09:09:05.060Z,4.60
2022-12-28T09:11:34.463Z,4.60
2022-12-28T09:14:01.906Z,4.70
2022-12-28T09:16:29.008Z,4.70
2022-12-28T09:18:56.736Z,4.80
2022-12-28T09:21:24.665Z,4.80
2022-12-28T09:23:51.703Z,4.80
2022-12-28T09:26:19.420Z,4.90
2022-12-28T09:28:46.791Z,4.90
2022-12-28T09:31:13.822Z,5.00
2022-12-28T09:36:46.678Z,5.10
2022-12-28T09:39:14.660Z,5.10
2022-12-28T09:41:44.055Z,5.10
2022-12-28T09:44:17.345Z,5.10
2022-12-28T09:46:52.991Z,5.10
2022-12-28T09:49:20.862Z,5.10
2022-12-28T09:51:52.699Z,5.10
2022-12-28T09:54:20.346Z,5.10
2022-12-28T09:56:48.275Z,5.20
2022-12-28T09:59:19.541Z,5.20
2022-12-28T10:01:48.653Z,5.20
2022-12-28T10:04:15.724Z,5.30
2022-12-28T10:06:43.628Z,5.30
2022-12-28T10:09:12.188Z,5.40
2022-12-28T10:11:39.886Z,5.50
2022-12-28T10:14:22.696Z,5.50
2022-12-28T10:16:49.658Z,5.60
2022-12-28T10:19:21.219Z,5.60
2022-12-28T10:21:48.253Z,5.60
2022-12-28T10:24:32.180Z,5.70
2022-12-28T10:27:00.372Z,5.80
2022-12-28T10:29:27.451Z,5.80
2022-12-28T10:32:00.745Z,5.80
2022-12-28T10:34:33.552Z,5.80
2022-12-28T10:37:04.741Z,5.90
2022-12-28T10:39:31.836Z,5.90
2022-12-28T10:42:00.584Z,6.00
2022-12-28T10:44:40.041Z,6.00
2022-12-28T10:47:17.761Z,6.20
2022-12-28T10:50:10.181Z,6.20
2022-12-28T10:52:35.760Z,6.20
2022-12-28T10:55:07.893Z,6.20
2022-12-28T10:57:37.996Z,6.20
2022-12-28T11:00:21.032Z,6.20
2022-12-28T11:02:48.266Z,6.20
2022-12-28T11:05:23.093Z,6.30
2022-12-28T11:07:50.127Z,6.30
2022-12-28T11:10:25.149Z,6.30
2022-12-28T11:12:53.090Z,6.30
2022-12-28T11:15:29.960Z,6.20
2022-12-28T11:17:58.048Z,6.20
2022-12-28T11:20:34.928Z,6.20
2022-12-28T11:23:04.912Z,6.20
2022-12-28T11:25:33.429Z,6.20
2022-12-28T11:28:00.598Z,6.20
2022-12-28T11:30:28.734Z,6.30
2022-12-28T11:32:59.230Z,6.30
2022-12-28T11:35:30.769Z,6.30
2022-12-28T11:38:00.401Z,6.40
2022-12-28T11:40:45.721Z,6.40
2022-12-28T11:43:31.849Z,6.50
2022-12-28T11:45:59.514Z,6.60
2022-12-28T11:48:40.275Z,6.60
2022-12-28T11:51:23.336Z,6.60
2022-12-28T11:53:51.390Z,6.50
2022-12-28T11:56:19.065Z,6.50
2022-12-28T11:58:58.352Z,6.50
2022-12-28T12:01:29.325Z,6.50
2022-12-28T12:03:56.387Z,6.60
2022-12-28T12:06:41.908Z,6.60
2022-12-28T12:09:21.154Z,6.60
2022-12-28T12:11:48.583Z,6.60
2022-12-28T12:14:16.139Z,6.60
2022-12-28T12:16:46.201Z,6.70
2022-12-28T12:19:17.917Z,6.70
2022-12-28T12:21:44.909Z,6.80
2022-12-28T12:24:18.340Z,6.80
2022-12-28T12:26:50.176Z,6.90
2022-12-28T12:29:18.473Z,6.90
2022-12-28T12:31:50.685Z,7.00
2022-12-28T12:34:26.270Z,7.00
2022-12-28T12:37:08.612Z,7.10
2022-12-28T12:39:54.270Z,7.20
2022-12-28T12:42:37.700Z,7.20
2022-12-28T12:45:08.289Z,7.20
2022-12-28T12:47:41.505Z,7.20
2022-12-28T12:50:28.718Z,7.20
2022-12-28T12:52:58.786Z,7.20
2022-12-28T12:55:29.249Z,7.30
2022-12-28T12:57:59.308Z,7.40
2022-12-28T13:00:28.626Z,7.50
2022-12-28T13:03:04.656Z,7.50
2022-12-28T13:05:31.738Z,7.60
2022-12-28T13:07:58.849Z,7.60
2022-12-28T13:10:35.932Z,7.60
2022-12-28T13:13:03.107Z,7.60
2022-12-28T13:15:30.268Z,7.60
2022-12-28T13:20:58.282Z,7.60
2022-12-28T13:23:25.399Z,7.70
2022-12-28T13:25:59.943Z,7.70
2022-12-28T13:28:28.297Z,7.70
2022-12-28T13:31:21.993Z,7.70
2022-12-28T13:33:55.971Z,7.70
2022-12-28T13:36:23.024Z,7.80
2022-12-28T13:38:59.937Z,7.80
2022-12-28T13:41:26.924Z,7.80
2022-12-28T13:44:10.119Z,7.70
2022-12-28T13:46:37.736Z,7.70
2022-12-28T13:49:04.722Z,7.70
2022-12-28T13:51:32.287Z,7.70
2022-12-28T13:53:59.423Z,7.70
2022-12-28T13:56:26.394Z,7.70
2022-12-28T13:58:58.601Z,7.70
2022-12-28T14:01:26.948Z,7.60
2022-12-28T14:04:08.866Z,7.60
2022-12-28T14:06:47.671Z,7.60
2022-12-28T14:09:14.837Z,7.60
2022-12-28T14:11:42.282Z,7.60
2022-12-28T14:14:09.545Z,7.60
2022-12-28T14:16:37.184Z,7.60
2022-12-28T14:19:04.468Z,7.50
2022-12-28T14:21:41.552Z,7.60
2022-12-28T14:24:09.654Z,7.50
2022-12-28T14:26:37.358Z,7.60
2022-12-28T14:29:08.443Z,7.50
2022-12-28T14:31:35.463Z,7.60
2022-12-28T14:34:03.117Z,7.60
2022-12-28T14:36:30.706Z,7.70
2022-12-28T14:39:04.184Z,7.70
2022-12-28T14:41:34.867Z,7.70
2022-12-28T14:44:02.127Z,7.70
2022-12-28T14:46:29.345Z,7.70
2022-12-28T14:48:56.430Z,7.80
2022-12-28T14:51:24.399Z,7.80
2022-12-28T14:54:10.335Z,7.70
2022-12-28T14:56:37.347Z,7.70
2022-12-28T14:59:04.405Z,7.80
2022-12-28T15:01:41.553Z,7.70
2022-12-28T15:04:11.079Z,7.60
2022-12-28T15:06:38.063Z,7.70
2022-12-28T15:09:08.297Z,7.60
2022-12-28T15:11:35.294Z,7.60
2022-12-28T15:14:02.267Z,7.70
2022-12-28T15:16:29.335Z,7.70
2022-12-28T15:18:57.727Z,7.80
2022-12-28T15:21:24.782Z,7.70
2022-12-28T15:23:52.145Z,7.70
2022-12-28T15:26:19.228Z,7.70
2022-12-28T15:28:46.282Z,7.70
2022-12-28T15:31:14.066Z,7.60
2022-12-28T15:33:41.054Z,7.60
2022-12-28T15:36:16.800Z,7.60
2022-12-28T15:38:45.123Z,7.60
2022-12-28T15:41:30.921Z,7.60
2022-12-28T15:43:57.903Z,7.50
2022-12-28T15:46:24.942Z,7.50
2022-12-28T15:48:52.046Z,7.50
2022-12-28T15:51:19.118Z,7.50
2022-12-28T15:53:46.084Z,7.40
2022-12-28T15:56:18.645Z,7.50
2022-12-28T15:58:46.147Z,7.40
2022-12-28T16:01:13.180Z,7.40
2022-12-28T16:03:40.293Z,7.30
2022-12-28T16:06:07.359Z,7.30
2022-12-28T16:08:34.563Z,7.30
2022-12-28T16:11:09.271Z,7.20
2022-12-28T16:13:36.283Z,7.10
2022-12-28T16:16:06.979Z,7.10
2022-12-28T16:18:34.036Z,7.10
2022-12-28T16:21:03.882Z,7.00
2022-12-28T16:23:31.982Z,6.90
2022-12-28T16:25:59.099Z,6.90
2022-12-28T16:28:26.373Z,6.80
2022-12-28T16:30:53.395Z,6.80
2022-12-28T16:33:20.471Z,6.70
2022-12-28T16:35:50.831Z,6.60
2022-12-28T16:38:22.281Z,6.50
2022-12-28T16:40:49.311Z,6.50
2022-12-28T16:43:16.664Z,6.40
2022-12-28T16:45:43.791Z,6.30
2022-12-28T16:48:11.878Z,6.30
2022-12-28T16:50:38.921Z,6.30
2022-12-28T16:53:05.988Z,6.20
2022-12-28T16:55:33.680Z,6.20
2022-12-28T16:58:00.649Z,6.20
2022-12-28T17:00:27.691Z,6.20
2022-12-28T17:02:54.787Z,6.10
2022-12-28T17:05:21.842Z,6.20
2022-12-28T17:07:48.839Z,6.10
2022-12-28T17:10:15.862Z,6.10
2022-12-28T17:12:42.873Z,6.10
2022-12-28T17:15:10.064Z,6.00
2022-12-28T17:17:37.037Z,6.00
2022-12-28T17:20:04.190Z,6.00
2022-12-28T17:22:31.203Z,5.90
2022-12-28T17:24:58.243Z,5.90
2022-12-28T17:27:25.223Z,5.90
2022-12-28T17:29:52.244Z,5.90
2022-12-28T17:32:19.292Z,5.90
2022-12-28T17:34:46.367Z,5.90
2022-12-28T17:37:13.332Z,6.00
2022-12-28T17:39:40.918Z,6.00
2022-12-28T17:42:08.161Z,6.00
2022-12-28T17:44:35.152Z,5.90
2022-12-28T17:47:02.222Z,6.00
2022-12-28T17:49:29.256Z,5.90
2022-12-28T17:51:56.320Z,5.90
2022-12-28T17:54:23.793Z,5.80
2022-12-28T17:56:50.756Z,5.80
2022-12-28T17:59:17.826Z,5.70
2022-12-28T18:01:44.854Z,5.70
2022-12-28T18:04:12.257Z,5.70
2022-12-28T18:06:39.344Z,5.70
2022-12-28T18:09:06.361Z,5.70
2022-12-28T18:11:33.375Z,5.60
2022-12-28T18:14:00.339Z,5.60
2022-12-28T18:16:27.445Z,5.60
2022-12-28T18:18:54.433Z,5.50
2022-12-28T18:21:23.052Z,5.50
2022-12-28T18:23:51.732Z,5.50
2022-12-28T18:26:19.682Z,5.50
2022-12-28T18:28:46.640Z,5.50
2022-12-28T18:31:13.724Z,5.40
2022-12-28T18:33:40.805Z,5.40
2022-12-28T18:36:11.409Z,5.50
2022-12-28T18:38:42.924Z,5.50
2022-12-28T18:41:13.687Z,5.40
2022-12-28T18:43:40.697Z,5.40
2022-12-28T18:46:08.742Z,5.40
2022-12-28T18:48:36.540Z,5.40
2022-12-28T18:51:05.333Z,5.40
2022-12-28T18:53:32.395Z,5.40
2022-12-28T18:55:59.926Z,5.40
2022-12-28T18:58:30.542Z,5.40
2022-12-28T19:01:01.674Z,5.40
2022-12-28T19:03:28.860Z,5.40
2022-12-28T19:06:02.401Z,5.30
2022-12-28T19:08:30.870Z,5.30
2022-12-28T19:10:57.904Z,5.30
2022-12-28T19:13:24.900Z,5.30
2022-12-28T19:15:54.958Z,5.30
2022-12-28T19:18:22.043Z,5.30
2022-12-28T19:20:49.008Z,5.20
2022-12-28T19:23:15.999Z,5.20
2022-12-28T19:25:42.995Z,5.20
2022-12-28T19:28:09.991Z,5.20
2022-12-28T19:30:36.965Z,5.10
2022-12-28T19:33:04.024Z,5.10
2022-12-28T19:35:31.012Z,5.10
2022-12-28T19:37:58.009Z,5.10
2022-12-28T19:40:25.039Z,5.00
2022-12-28T19:42:52.004Z,4.90
2022-12-28T19:45:19.234Z,4.90
2022-12-28T19:47:46.260Z,4.90
2022-12-28T19:50:13.321Z,4.80
2022-12-28T19:52:40.297Z,4.80
2022-12-28T19:55:07.426Z,4.70
2022-12-28T19:57:34.385Z,4.70
2022-12-28T20:00:01.349Z,4.60
2022-12-28T20:02:28.438Z,4.60
2022-12-28T20:04:55.572Z,4.60
2022-12-28T20:07:22.553Z,4.60
2022-12-28T20:09:50.491Z,4.60
2022-12-28T20:12:22.415Z,4.50
2022-12-28T20:14:49.437Z,4.50
2022-12-28T20:17:16.426Z,4.50
2022-12-28T20:19:43.473Z,4.50
2022-12-28T20:22:10.506Z,4.40
2022-12-28T20:24:37.503Z,4.40
2022-12-28T20:27:04.523Z,4.40
2022-12-28T20:29:31.563Z,4.40
2022-12-28T20:31:58.586Z,4.40
2022-12-28T20:34:26.136Z,4.40
2022-12-28T20:36:53.161Z,4.40
2022-12-28T20:39:20.139Z,4.40
2022-12-28T20:42:05.900Z,4.40
2022-12-28T20:44:34.122Z,4.40
2022-12-28T20:47:01.924Z,4.40
2022-12-28T20:49:29.288Z,4.40
2022-12-28T20:51:56.271Z,4.30
2022-12-28T20:54:23.393Z,4.30
2022-12-28T20:56:55.098Z,4.30
2022-12-28T20:59:24.522Z,4.30
2022-12-28T21:01:51.602Z,4.30
2022-12-28T21:04:18.673Z,4.20
2022-12-28T21:06:46.087Z,4.30
2022-12-28T21:09:13.160Z,4.20
2022-12-28T21:11:40.121Z,4.20
2022-12-28T21:14:07.099Z,4.20
2022-12-28T21:16:34.132Z,4.20
2022-12-28T21:19:01.156Z,4.20
2022-12-28T21:21:28.211Z,4.20
2022-12-28T21:23:55.205Z,4.20
2022-12-28T21:26:22.415Z,4.20
2022-12-28T21:28:49.631Z,4.20
2022-12-28T21:31:16.853Z,4.10
2022-12-28T21:33:43.952Z,4.20
2022-12-28T21:36:17.716Z,4.10
2022-12-28T21:38:45.423Z,4.10
2022-12-28T21:41:13.361Z,4.10
2022-12-28T21:43:40.316Z,4.10
2022-12-28T21:46:08.327Z,4.10
2022-12-28T21:48:35.606Z,4.10
2022-12-28T21:51:03.459Z,4.10
2022-12-28T21:53:30.429Z,4.10
2022-12-28T21:55:57.460Z,4.20
2022-12-28T21:58:24.601Z,4.10
2022-12-28T22:01:15.071Z,4.20
2022-12-28T22:04:00.946Z,4.20
2022-12-28T22:06:27.916Z,4.10
2022-12-28T22:09:13.607Z,4.10
2022-12-28T22:11:59.468Z,4.10
2022-12-28T22:14:26.448Z,4.10
2022-12-28T22:16:53.564Z,4.10
2022-12-28T22:19:20.604Z,4.00
2022-12-28T22:21:47.635Z,4.00
2022-12-28T22:24:14.599Z,4.00
2022-12-28T22:26:41.654Z,4.00
2022-12-28T22:29:08.629Z,4.00
2022-12-28T22:31:37.395Z,4.00
2022-12-28T22:34:07.293Z,4.10
2022-12-28T22:36:34.649Z,4.10
2022-12-28T22:39:01.655Z,4.10
2022-12-28T22:41:28.615Z,4.10
2022-12-28T22:43:55.619Z,4.10
2022-12-28T22:46:22.683Z,4.20
2022-12-28T22:48:49.791Z,4.20
2022-12-28T22:51:16.795Z,4.20
2022-12-28T22:53:43.883Z,4.20
2022-12-28T22:56:11.718Z,4.20
2022-12-28T22:58:38.697Z,4.30
2022-12-28T23:01:09.830Z,4.30
2022-12-28T23:03:37.598Z,4.40
2022-12-28T23:06:05.255Z,4.40
2022-12-28T23:08:32.244Z,4.50
2022-12-28T23:11:00.059Z,4.50
2022-12-28T23:13:27.708Z,4.50
2022-12-28T23:15:58.450Z,4.50
2022-12-28T23:18:44.182Z,4.60
2022-12-28T23:21:36.938Z,4.60
2022-12-28T23:24:22.786Z,4.60
2022-12-28T23:27:08.606Z,4.60
2022-12-28T23:29:35.567Z,4.60
2022-12-28T23:32:02.620Z,4.60
2022-12-28T23:34:29.583Z,4.60
2022-12-28T23:36:56.611Z,4.70
2022-12-28T23:39:23.668Z,4.70
2022-12-28T23:41:50.953Z,4.70
2022-12-28T23:44:18.494Z,4.70
2022-12-28T23:46:45.600Z,4.70
2022-12-28T23:49:13.933Z,4.70
2022-12-28T23:51:41.276Z,4.70
2022-12-28T23:54:08.848Z,4.70
2022-12-28T23:56:35.871Z,4.70
2022-12-28T23:59:03.227Z,4.70
